RELACIONES PÚBLICAS

27/12/2017PERSPECTIVAS CLIMÁTICAS PARA ENERO – FEBRERO - MARZO 2017  Se adjunta el Informe de Perspectivas Climáticas para el trimestre Enero, Febrero y Marzo del 2017.http://meteorologia.gub.uy/ServCli/tendenciasClimaticas

Productos aeronáuticos

  • SIGMET
  • METAR / SPECI
  • TAF
  • AIREP
  • Aviso de aeródromo
  • Pronárea
  • Carta superficie
Fecha : 01/03/2017
FTUY 04 SUMU 01 17 30
SUMU TAF 011730Z 0118/0218 22015KT 9999 FEW030 SCT200 TX32/0218Z TN20/0209Z TEMPO 0118/0200 FEW033TCU PROB30 TEMPO 0118/0200 TS FEW040CB BECMG 0200/0204 15015KT PROB30 TEMPO 0204/0212 5000 RABR BKN015=
SULS TAF 011730Z 0118/0218 22015KT 9999 FEW025 SCT200 TX32/0218Z TN20/0209Z TEMPO 0118/0200 26015G25KT FEW033TCU PROB30 TEMPO 0118/0200 TS FEW040CB BECMG 0200/0204 15015KT PROB30 TEMPO 0204/0212 5000 RABR BKN015=
SUAA TAF 011730Z 0118/0218 22015KT 9999 FEW030 SCT200 TX32/0218Z TN20/0209Z TEMPO 0118/0200 FEW033TCU PROB30 TEMPO 0118/0200 TS FEW040CB BECMG 0200/0204 15015KT PROB30 TEMPO 0204/0212 5000 RABR BKN015=
SUCA TAF 011730Z 0118/0218 22015KT 9999 FEW030 SCT200 TX32/0218Z TN20/0209Z TEMPO 0118/0200 FEW033TCU PROB30 TEMPO 0118/0200 TS FEW040CB BECMG 0200/0204 15015KT PROB30 TEMPO 0204/0212 5000 RABR BKN015=
SUDU TAF 011730Z 0118/0218 22015KT 9999 SCT030 SCT200 TX32/0218Z TN20/0209Z TEMPO 0118/0200 FEW033TCU PROB30 TEMPO 0118/0200 6000 TSRA BKN030 FEW040CB BECMG 0200/0204 15015KT PROB30 TEMPO 0206/0212 5000 BR=
SUSO TAF 011730Z 0118/0218 26010KT 9999 BKN020 TX35/0218Z TN20/0209Z BECMG 0206/0208 06005KT CAVOK PROB30 TEMPO 0206/0212 5000 BR =
SURV TAF 011730Z 0118/0218 26010KT 9999 BKN020 TX35/0218Z TN20/0209Z BECMG 0200/0202 06005KT CAVOK PROB30 TEMPO 0206/0212 5000 BR =

Predictor : Ana Olivera


Mensajes TAF vigentes - Internacionales


Argentina
TAF SACO 011100Z 0112/0212 05005KT CAVOK TX35/0119Z TN22/0210Z TEMPO 0120/0122 36010KT 9999 VCTS SCT030 FEW040CB PROB30 TEMPO 0210/0212 02005KT CAVOK
TAF SABE 011100Z 0112/0212 24010KT CAVOK TX32/0119Z TN26/0210Z BECMG 0116/0119 VRB03KT BKN030 BKN090 PROB30 TEMPO 0118/0120 8000 -RA BECMG 0123/0201 16010KT SCT030 SCT100 BECMG 0204/0206 07010KT
TAF SAAR 011100Z 0112/0212 VRB03KT CAVOK TX34/0118Z TN22/0209Z BECMG 0117/0119 07005KT
TAF SAEZ 011100Z 0112/0212 26010KT 9999 SCT040 FEW050TCU TX34/0119Z TN20/0209Z BECMG 0115/0118 20010KT SCT050TCU PROB30 TEMPO 0120/0200 15010KT 9000 -SHRA SCT030 FEW050CB SCT070 BECMG 0203/0206 07010KT 8000 SCT020 BKN080
TAF SAME 011100Z 0112/0212 16015KT 9999 FEW040 TX32/0120Z TN18/0210Z BECMG 0120/0122 VRB03KT 9999 FEW040
Bolivia
TAF SLLP 011000Z 0112/0212 10008KT 9999 SCT015 SCT070 TX16/0120Z TN04 /0210Z TEMPO 0117/0121 15013KT 8000 SHRA SCT017 FEW020CB BKN070 BECMG 0123/0201 07005KT SCT015 FEW017CB TEMPO 0205/0209 4000E VCFG FEW002 SCT013 BKN070
Brasil
TAF SBFI 010930Z 0112/0212 11002KT CAVOK TX31/0118Z TN25/0209Z BECMG 0114/0116 9999 SCT030 PROB40 TEMPO 0116/0121 SHRA SCT030 FEW035TCU BECMG 0121/ 0124 09002KT FEW025 RMK PDV
TAF SBPA 010930Z 0112/0212 35004KT CAVOK TX30/0118Z TN25/0209Z BECMG 0120/0122 10004KT CAVOK PROB40 TEMPO 0116/0118 SHRA SCT030 FEW035TCU PROB40 TE MPO 0118/0122 6000 TSRA SCT030 FEW035CB RMK PDV
TAF SBFL 010930Z 0112/0212 34006KT 9999 SCT020 TX31/0118Z TN25/0209Z PROB40 TEMPO 0116/0120 02004KT 7000 SHRA SCT025 FEW030TCU BECMG 0200/0202 0 1003KT CAVOK RMK PDV
TAF SBSP 010900Z 0112/0212 04005KT CAVOK TX30/0117Z TN20/0209Z BECMG 0113/0115 33010KT SCT035 PROB40 TEMPO 0116/0202 24010KT 6000 TSRA SCT020 FEW045CB BECMG 0202/0204 06003KT 8000 NSC TEMPO 0204/0208 00000KT BECMG 0209/0211 32005KT RMK PGD
TAF SBGR 010900Z 0112/0218 06005KT CAVOK TX30/0117Z TN20/0208Z BECMG 0113/0115 32010KT SCT035 PROB40 TEMPO 0116/0202 24010KT 6000 TSRA SCT035 FEW045CB BECMG 0202/0204 04005KT 8000 NSC TEMPO 0209/0211 3000 BR BKN003 BECMG 0212/0214 SCT040 RMK PGD
TAF SBRJ 010821Z 0112/0124 34005KT 9999 FEW025TX36/0115Z TN26/0124Z BECMG 0116/0118 17015KT SCT025 FEW030TCU BECMG 0122/0124 13005KT FEW025 RMK PHQ
TAF SBBR 010800Z 0112/0212 13007KT 9999 BKN010 TX26/0116Z TN19/0207Z BECMG 0113/0115 07005KT BKN030 FEW040TCU TEMPO 0118/0122 9000 TSRA SCT030 FEW040CB BECMG 0122/0124 35010KT SCT035 FEW040TCU TEMPO 0200/0203 31005KT TSRA SCT030 FEW040CB BECMG 0206/0208 24010KT SCT010 RMK PEC
Colombia
TAF SKBO 011100Z 0112/0212 VRB02KT 9999 SCT020 SCT09 TEMPO 0112/0113 0500 PRFG VV/// BECMG 0116/0118 29007KT TEMPO 0122/0124 8000 TSRA SCT017CB OVC070 TEMPO 0202/0207 7000 DZ SCT017CB BKN080 TX19/0118Z TN08/0211Z
Chile
TAF SCCI 011055Z 0112/0212 26017G27KT 9999 FEW025 SCT045 TN03/0209Z TX12/0118Z TEMPO 0115/0120 26030G40KT PROB40 TEMPO 0115/0200 7000 -SHRA SCT015 BKN025 BECMG 0121/0123 26015G25KT BECMG 0204/0206 28012KT BECMG 0208/0210 33010KT 7000 -RA SCT015 BKN025
TAF SCEL 011050Z 0112/0212 16004KT CAVOK TX30/0119Z TN16/0210Z TEMPO 0112/0114 VRB02KT 5000 HZ FEW180 BECMG 0114/0116 20008KT BECMG 0117/ 0119 21012KT TEMPO 0118/0122 FEW070 BECMG 0202/0204 16004KT BECMG 0208/0210 VRB03KT 7000 NSC
Ecuador
SEQM 010926Z 0112/0212 VRB03KT 9999 SCT030 SCT080 FM011800 36012KT 9999 SCT030 SCT080 FM020000 12002KT 9999 FEW010 BKN020 TEMPO 0208/0211 5000 BR OVC005 TX22/0119Z TN11/0211Z
EEUU
KDCA 011547Z 0116/0212 20016G24KT P6SM FEW030 BKN150 FM011800 22021G32KT 4SM TSRA BKN045CB FM012100 22020G30KT P6SM VCTS BKN045CB FM020000 22019G31KT 3SM SHRA VCTS BKN050CB FM020600 27023G38KT P6SM SCT100
KIAD 011546Z 0116/0218 19012G21KT P6SM BKN030 FM011800 22020G32KT 4SM TSRA BKN045CB FM012100 23018G29KT P6SM VCTS OVC050CB FM020000 22018G29KT 3SM SHRA VCTS BKN045CB FM020500 27021G34KT P6SM SCT040 FM021600 30017G24KT P6SM FEW250
KJFK 011533Z 0116/0218 20013G20KT 5SM -SHRA BR OVC010 FM011800 21017G25KT P6SM BKN015 FM012200 22020G30KT 5SM -SHRA BKN025 FM020700 27023G35KT P6SM SCT035 FM021600 29024G38KT P6SM SCT045
KLGA 011533Z 0116/0212 20013G20KT 5SM -SHRA BR OVC012 FM011800 22018G25KT P6SM BKN015 FM012200 23020G30KT 5SM -SHRA BKN025 FM020700 27023G35KT P6SM SCT035
KMIA 011516Z 0115/0212 11012KT P6SM VCSH SCT023 BKN060 FM011700 12013G18KT P6SM VCSH SCT023 BKN050 FM020000 12008KT P6SM SCT025 SCT050
España
TAF LEBL 011100Z 0112/0212 22012KT 9999 FEW030 TX15/0113Z TN08/0206Z TEMPO 0116/0120 24015G25KT BECMG 0122/0201 VRB04KT TEMPO 0200/0210 34006KT
TAF LEMD 011100Z 0112/0218 22007KT CAVOK TX15/0115Z TN03/0206Z TEMPO 0114/0118 22008G18KT BECMG 0121/0122 VRB04KT PROB30 TEMPO 0206/0210 3000 BR BKN004
Francia
TAF AMD LFPO 011329Z 0113/0218 22012KT 8000 BKN012 TEMPO 0113/0121 22015G25KT 3000 -RA BKN005 PROB30 TEMPO 0118/0122 22016G32KT 1500 RA BKN003 BECMG 0122/0124 9999 SCT020 TEMPO 0212/0215 -SHRA BKN020
Inglaterra
TAF EGLL 011053Z 0112/0218 23006KT 9999 SCT030 TEMPO 0112/0121 7000 -RA BKN014 BECMG 0119/0122 26018G28KT PROB40 TEMPO 0119/0122 4000 +RA TEMPO 0123/0210 26024G38KT PROB30 TEMPO 0123/0206 7000 SHRA BECMG 0212/0215 23012KT
Panamá
TAF MPTO 011000Z 0112/0218 03008KT 9999 SCT018 BECMG 0116/0120 36012KT SCT020 BECMG 0120/0124 02008KT FEW020
Paraguay
TAF SGAS 010922Z 0112/0212 03008KT 9999 SCT033 TX35/0119Z TN25/0209Z BECMG 0114/0117 9999 BKN030 PROB40 TEMPO 0119/0121 09012KT 8000 TSRA BKN027 FEW040CB BECMG 0123/0202 VRB04KT 9999 -RA BKN027 BECMG 0205/0208 11004KT 9999 SCT033
Venezuela
TAF SVMI 011000Z 0112/0212 05008KT 9000 +DZ OVC016 TX32/18ZTN25/09Z BECMG 0114/0120 02008KT 9000 DZ BKN016

* Datos extraidos del Text DataServer de la NOAA (NOAA TEXT DATA SERVER)

Instituto Uruguayo de Meteorología

Dr. Javier Barrios Amorín 1488 - CP 11200
1895 int 108

Montevideo - Uruguay